Time;durP1;ratioP1;P1;durP2;ratioP2;P2;SDS_P1;SDS_P2;PMS_P1;PMS_P2;Temp;Humidity;BMP_temperature;BMP_pressure;BME280_temperature;BME280_humidity;BME280_pressure;Samples;Min_cycle;Max_cycle;Signal;HPM_P1;HPM_P2
2023/12/17 10:07:49;;;;;;;16.77;12.10;;;;;;;4.38;100.00;101171.84;5142779;27;20567;-88
2023/12/17 10:10:45;;;;;;;13.87;10.53;;;;;;;5.95;100.00;101159.94;5075429;28;39022;-86
2023/12/17 10:13:32;;;;;;;14.33;8.50;;;;;;;7.28;100.00;101154.28;5091260;28;40788;-86
2023/12/17 10:16:04;;;;;;;13.13;7.83;;;;;;;8.42;100.00;101180.78;5090915;28;42216;-89
2023/12/17 10:18:33;;;;;;;11.93;7.80;;;;;;;9.73;95.05;101195.88;5091363;28;42446;-89
2023/12/17 10:21:04;;;;;;;10.90;7.10;;;;;;;10.56;89.10;101171.00;5090962;28;39733;-88
2023/12/17 10:24:08;;;;;;;14.80;8.77;;;;;;;11.54;83.98;101174.47;5090523;28;40735;-84
2023/12/17 10:26:43;;;;;;;13.47;7.97;;;;;;;11.19;82.86;101145.44;5090071;28;42927;-87
2023/12/17 10:29:16;;;;;;;12.43;7.70;;;;;;;11.29;81.77;101160.16;5091014;28;42648;-88
2023/12/17 10:32:05;;;;;;;9.60;6.87;;;;;;;11.52;78.68;101128.50;5074061;28;39663;-87
2023/12/17 10:34:33;;;;;;;8.47;6.93;;;;;;;12.86;74.34;101150.69;5090761;28;41831;-87
2023/12/17 10:37:07;;;;;;;7.67;6.23;;;;;;;14.18;69.42;101184.78;5090192;28;42797;-89
2023/12/17 10:39:48;;;;;;;6.90;6.20;;;;;;;15.23;64.97;101186.53;5089570;28;41686;-89
2023/12/17 10:42:19;;;;;;;10.47;6.27;;;;;;;15.94;61.66;101177.06;5095322;27;38826;-89
2023/12/17 10:44:49;;;;;;;9.53;6.53;;;;;;;16.66;59.51;101185.09;5125742;27;41317;-90
2023/12/17 10:47:23;;;;;;;7.10;6.23;;;;;;;17.24;57.60;101176.72;5131217;27;44484;-90
2023/12/17 10:49:55;;;;;;;7.33;6.53;;;;;;;17.36;54.75;101146.59;5131999;27;41291;-90
2023/12/17 10:52:30;;;;;;;9.00;6.37;;;;;;;17.43;54.45;101147.97;5136360;27;40564;-89
2023/12/17 10:55:27;;;;;;;8.17;5.90;;;;;;;17.05;53.21;101165.25;5131574;27;40888;-89
2023/12/17 10:58:05;;;;;;;9.33;5.23;;;;;;;16.86;54.74;101173.38;5130706;27;42309;-90
2023/12/17 11:00:50;;;;;;;9.20;6.23;;;;;;;15.94;54.24;101102.22;5109590;27;40995;-89
2023/12/17 11:03:40;;;;;;;6.50;5.73;;;;;;;15.54;56.55;101137.06;5125484;27;39904;-89
2023/12/17 11:06:11;;;;;;;7.00;6.30;;;;;;;15.09;57.65;101144.44;5131536;27;40853;-88
2023/12/17 11:08:42;;;;;;;7.90;6.03;;;;;;;14.38;59.27;101107.53;5121464;27;42118;-88
2023/12/17 11:11:09;;;;;;;11.60;6.37;;;;;;;14.16;59.24;101104.03;5131247;27;41260;-88
2023/12/17 11:13:58;;;;;;;8.10;6.60;;;;;;;15.02;57.92;101147.44;5131843;27;39184;-89
2023/12/17 11:16:32;;;;;;;7.03;5.77;;;;;;;15.18;57.41;101127.16;5131359;27;40663;-88
2023/12/17 11:19:22;;;;;;;8.10;6.30;;;;;;;15.12;54.89;101146.09;5118165;27;42260;-89
2023/12/17 11:21:55;;;;;;;6.77;6.07;;;;;;;15.58;54.36;101139.53;5117798;27;41177;-88
2023/12/17 11:24:24;;;;;;;9.07;6.20;;;;;;;16.84;51.18;101135.97;5117948;27;38959;-88
2023/12/17 11:27:15;;;;;;;7.87;6.23;;;;;;;18.29;49.39;101141.41;5117336;27;41916;-89
2023/12/17 11:29:46;;;;;;;7.00;5.87;;;;;;;19.15;47.19;101137.16;5117832;27;41816;-89
2023/12/17 11:32:16;;;;;;;7.47;5.57;;;;;;;19.57;46.15;101158.66;5117786;27;41301;-89
2023/12/17 11:34:53;;;;;;;7.03;5.73;;;;;;;18.71;47.11;101147.88;5101099;27;38966;-88
2023/12/17 11:37:21;;;;;;;5.77;5.17;;;;;;;17.55;47.84;101139.31;5116847;27;40687;-89
2023/12/17 11:39:52;;;;;;;6.50;5.80;;;;;;;16.80;47.82;101121.03;5117290;27;41683;-89
2023/12/17 11:42:25;;;;;;;7.80;5.70;;;;;;;16.60;48.43;101149.72;5116905;27;41140;-88
2023/12/17 11:44:54;;;;;;;7.23;6.27;;;;;;;16.12;48.32;101095.06;5099323;27;39137;-88
2023/12/17 11:47:41;;;;;;;6.13;5.50;;;;;;;16.30;48.48;101128.06;5116968;27;41069;-90
2023/12/17 11:50:12;;;;;;;7.77;5.93;;;;;;;16.47;47.49;101079.91;5132626;27;44066;-85
2023/12/17 11:52:39;;;;;;;7.77;5.60;;;;;;;17.46;46.34;101121.03;5115562;27;40979;-85
2023/12/17 11:55:08;;;;;;;7.37;5.77;;;;;;;18.38;45.71;101137.31;5117128;27;38819;-86
2023/12/17 11:57:35;;;;;;;7.80;6.17;;;;;;;18.88;44.02;101158.50;5116225;27;41863;-83
2023/12/17 12:00:12;;;;;;;5.67;5.07;;;;;;;19.11;44.58;101114.97;5116706;27;42356;-83
2023/12/17 12:02:59;;;;;;;6.17;5.43;;;;;;;18.82;44.41;101111.38;5116435;27;41141;-88
2023/12/17 12:05:47;;;;;;;6.37;5.20;;;;;;;18.56;45.05;101131.69;5116660;27;39188;-86
2023/12/17 12:08:15;;;;;;;5.63;5.00;;;;;;;18.68;44.59;101087.19;5114549;27;43313;-85
2023/12/17 12:10:48;;;;;;;7.33;5.37;;;;;;;18.63;42.38;101100.03;5115093;27;40681;-87
2023/12/17 12:13:37;;;;;;;6.17;5.23;;;;;;;19.23;42.39;101116.03;5113324;28;41398;-87
2023/12/17 12:22:53;;;;;;;5.97;5.37;;;;;;;23.85;36.81;101124.91;5131613;27;43024;-88
2023/12/17 12:37:28;;;;;;;5.38;3.92;;;;;;;27.31;30.85;101169.06;5131374;27;42923;-90
2023/12/17 12:40:02;;;;;;;4.90;4.40;;;;;;;27.42;30.42;101105.44;5134494;27;38733;-88
2023/12/17 12:45:12;;;;;;;4.30;3.90;;;;;;;28.38;29.35;101164.88;5115772;27;43767;-90
2023/12/17 12:48:20;;;;;;;5.00;4.40;;;;;;;28.34;29.28;101124.44;5115659;27;43665;-87
2023/12/17 12:51:07;;;;;;;4.95;3.70;;;;;;;27.98;28.85;101145.28;5116192;27;40207;-87
2023/12/17 12:53:55;;;;;;;5.80;4.53;;;;;;;27.03;29.96;101111.00;5115872;27;41739;-89
2023/12/17 13:00:16;;;;;;;5.00;4.47;;;;;;;25.61;30.88;101109.72;5133699;27;43866;-88
2023/12/17 13:02:52;;;;;;;5.97;3.90;;;;;;;24.41;32.10;101057.03;5116945;27;39279;-87
2023/12/17 13:05:50;;;;;;;5.80;4.50;;;;;;;23.28;32.96;101048.31;5119251;27;41128;-87
2023/12/17 13:08:20;;;;;;;4.40;4.00;;;;;;;22.04;34.68;101023.00;5125210;27;41741;-89
2023/12/17 13:10:48;;;;;;;6.40;4.73;;;;;;;21.10;35.85;101050.53;5122749;27;42081;-89
2023/12/17 13:13:16;;;;;;;4.93;4.37;;;;;;;19.75;37.13;101010.59;5138908;27;40734;-92
2023/12/17 13:15:46;;;;;;;5.60;4.70;;;;;;;18.92;38.28;101042.72;5139807;27;40757;-90
2023/12/17 13:18:44;;;;;;;6.20;5.37;;;;;;;17.59;38.72;100969.34;5139262;27;42031;-88
2023/12/17 13:21:33;;;;;;;6.00;5.13;;;;;;;16.81;41.53;100994.28;5138893;27;42844;-89
2023/12/17 13:24:00;;;;;;;6.70;5.03;;;;;;;16.31;42.38;100998.78;5139729;27;39304;-89
2023/12/17 13:26:36;;;;;;;7.23;5.17;;;;;;;15.78;43.03;100997.88;5139130;27;41213;-87
2023/12/17 13:29:03;;;;;;;6.07;5.27;;;;;;;15.19;44.19;100963.38;5138872;27;41825;-89
2023/12/17 13:31:51;;;;;;;4.90;4.00;;;;;;;14.97;45.48;101000.00;5139299;27;41117;-90
2023/12/17 13:34:22;;;;;;;6.67;4.63;;;;;;;14.32;45.77;100958.50;5138831;27;39278;-90
2023/12/17 13:36:54;;;;;;;5.50;4.20;;;;;;;13.98;46.87;100965.28;5139513;27;40918;-90
2023/12/17 13:39:24;;;;;;;5.47;4.30;;;;;;;13.84;47.86;100989.00;5136886;27;41846;-89
2023/12/17 13:41:54;;;;;;;5.20;4.53;;;;;;;13.27;48.25;100923.03;5137932;27;40832;-89
2023/12/17 13:44:22;;;;;;;6.57;4.90;;;;;;;12.83;48.62;100890.22;5139164;27;39103;-90
2023/12/17 13:46:49;;;;;;;7.90;5.10;;;;;;;13.04;49.17;100968.28;5139382;27;41523;-89
2023/12/17 13:49:18;;;;;;;6.57;4.90;;;;;;;12.72;50.09;100942.94;5139362;27;42055;-89
2023/12/17 13:51:46;;;;;;;6.83;4.23;;;;;;;12.33;50.71;100898.34;5136585;27;41236;-91
2023/12/17 13:54:20;;;;;;;5.47;4.57;;;;;;;12.40;51.12;100945.00;5139067;27;40362;-90
2023/12/17 13:56:50;;;;;;;5.30;4.00;;;;;;;12.11;51.53;100932.78;5122126;27;41340;-90
2023/12/17 13:59:18;;;;;;;8.83;5.57;;;;;;;11.84;51.91;100913.38;5139079;27;41715;-90
2023/12/17 14:04:58;;;;;;;5.83;4.80;;;;;;;11.71;53.44;100937.72;5139401;27;40032;-89
2023/12/17 14:07:33;;;;;;;7.83;5.27;;;;;;;11.30;54.31;100889.53;5138669;27;40609;-90
2023/12/17 14:13:07;;;;;;;8.27;5.90;;;;;;;10.94;55.36;100875.69;5167949;27;43405;-89
2023/12/17 14:15:37;;;;;;;6.27;4.73;;;;;;;10.95;55.95;100890.69;5116196;27;40454;-91
2023/12/17 14:18:07;;;;;;;9.20;6.13;;;;;;;10.84;56.49;100890.16;5118014;27;41305;-92
2023/12/17 14:20:38;;;;;;;8.83;5.97;;;;;;;10.58;56.92;100858.28;5118126;27;43506;-90
2023/12/17 14:23:06;;;;;;;7.30;6.37;;;;;;;10.74;57.25;100905.47;5130485;27;42079;-91
2023/12/17 14:25:34;;;;;;;7.10;5.30;;;;;;;10.59;57.39;100897.13;5137617;27;39381;-88
2023/12/17 14:30:58;;;;;;;7.30;4.73;;;;;;;10.28;58.19;100873.28;5163922;27;43890;-90
2023/12/17 14:33:25;;;;;;;5.27;4.73;;;;;;;9.95;57.99;100822.16;5137679;27;43595;-90
2023/12/17 14:35:53;;;;;;;7.70;6.10;;;;;;;10.05;58.15;100860.69;5137550;27;39585;-88
2023/12/17 14:38:44;;;;;;;7.33;5.77;;;;;;;10.00;59.58;100852.91;5121514;27;41092;-88
2023/12/17 14:41:12;;;;;;;8.00;5.40;;;;;;;9.96;59.49;100867.13;5116999;27;42566;-89
2023/12/17 14:43:40;;;;;;;6.27;5.20;;;;;;;10.03;59.94;100891.63;5116924;27;41252;-90
2023/12/17 14:46:24;;;;;;;6.00;5.13;;;;;;;9.70;60.39;100849.31;5117173;27;38568;-90
2023/12/17 14:51:34;;;;;;;6.00;4.93;;;;;;;9.62;60.80;100867.19;5115837;27;42971;-88
2023/12/17 14:54:02;;;;;;;6.93;5.30;;;;;;;9.49;60.84;100865.75;5119748;27;42075;-89
2023/12/17 14:56:35;;;;;;;5.57;4.53;;;;;;;9.53;60.99;100890.34;5135507;27;39142;-89
2023/12/17 14:59:05;;;;;;;5.90;3.90;;;;;;;9.40;61.65;100883.63;5136778;27;40533;-89
2023/12/17 15:01:55;;;;;;;6.97;4.53;;;;;;;9.33;61.64;100893.50;5140058;27;41745;-88
2023/12/17 15:04:27;;;;;;;5.67;4.77;;;;;;;8.96;62.16;100843.31;5142024;27;42191;-91
2023/12/17 15:06:54;;;;;;;6.17;5.27;;;;;;;8.81;62.85;100847.16;5123983;27;40501;-89
2023/12/17 15:09:43;;;;;;;6.70;4.80;;;;;;;8.76;62.91;100851.72;5141441;27;43229;-90
2023/12/17 15:12:12;;;;;;;6.80;4.50;;;;;;;8.82;63.07;100875.34;5140336;27;43557;-89
2023/12/17 15:14:42;;;;;;;4.70;4.10;;;;;;;8.73;63.23;100877.31;5139812;27;41356;-89
2023/12/17 15:17:42;;;;;;;6.37;5.43;;;;;;;8.18;63.64;100794.88;5139796;27;39283;-88
2023/12/17 15:20:27;;;;;;;6.77;5.13;;;;;;;8.24;64.19;100826.44;5140291;27;40799;-89
2023/12/17 15:23:11;;;;;;;6.67;5.00;;;;;;;8.43;64.96;100878.84;5123917;27;42248;-87
